METAR AND TAF INFORMATION
METAR FOR GCGM
ADDS - METARS form results

(0837 UTC 13 September 2022)
Data provider http://aviationweather.gov/metar/data/
 
METAR text: GCGM 130830Z 26007KT 230V290 9999 FEW020 23/18 Q1015 RMK R09/26006KT 230V290 ARP/26007KT 240V300
Conditions at: GCGM (LA GOMERA ARPT , ES) observed 0830 UTC 13 September 2022
Temperature: 23.0°C (73°F)
Dewpoint: 18.0°C (64°F) [RH = 73%]
Pressure (altimeter): 29.97 inches Hg (1015.0 mb)
Winds: from the W (260 degrees) at 8 MPH (7 knots; 3.6 m/s)
Visibility: 6 or more miles (10+ km)
Ceiling: at least 12,000 feet AGL
Clouds: few clouds at 2000 feet AGL
Weather: no significant weather observed at this time

METAR text: GCGM 130800Z 26008KT 9999 FEW020 23/18 Q1015 RMK R09/27007KT 240V300 ARP/27006KT
Conditions at: GCGM (LA GOMERA ARPT , ES) observed 0800 UTC 13 September 2022
Temperature: 23.0°C (73°F)
Dewpoint: 18.0°C (64°F) [RH = 73%]
Pressure (altimeter): 29.97 inches Hg (1015.0 mb)
Winds: from the W (260 degrees) at 9 MPH (8 knots; 4.1 m/s)
Visibility: 6 or more miles (10+ km)
Ceiling: at least 12,000 feet AGL
Clouds: few clouds at 2000 feet AGL
Weather: no significant weather observed at this time

Forecast for: GCGM (LA GOMERA ARPT , ES)
Text: TAF GCGM 130800Z 1309/1409 22005KT 9999 SCT020 TX28/1314Z TN24/1406Z
Forecast period: 0900 UTC 13 September 2022 to 0900 UTC 14 September 2022
Forecast type: FROM: standard forecast or significant change
Winds: from the SW (220 degrees) at 6 MPH (5 knots; 2.6 m/s)
Visibility: 6 or more miles (10+ km)
Ceiling: at least 12,000 feet AGL
Clouds: scattered clouds at 2000 feet AGL
Weather: no significant weather forecast for this period

 AIRPORT MAP

 RUNWAY INFORMATION
Runway 09 Runway length 4921 ft Runway width 98 ft
Runway elevation 716 ft Runway displaced threshold 0 ft Runway heading 81
Runway 27 Runway length 4921 ft Runway width 98 ft
Runway elevation 712 ft Runway displaced threshold 0 ft Runway heading 261

 AIRPORT FREQUENCIES
Type GND Name GND Frequency 121.7 MHZ
Type TWR Name TWR Frequency 118.4 MHZ

 AIRPORT NEAR NAVIGATION AIDS
Type VOR-DME Name La Gomera Frequency 116000 KHZ